sensor_id;sensor_type;location;lat;lon;timestamp;P1;durP1;ratioP1;P2;durP2;ratioP2
6850;SDS011;3464;42.728;23.296;2022-08-21T00:02:18;31.03;;;18.17;;
6850;SDS011;3464;42.728;23.296;2022-08-21T00:05:07;35.17;;;19.27;;
6850;SDS011;3464;42.728;23.296;2022-08-21T00:07:56;34.57;;;18.30;;
6850;SDS011;3464;42.728;23.296;2022-08-21T00:10:46;38.73;;;18.53;;
6850;SDS011;3464;42.728;23.296;2022-08-21T00:13:35;34.93;;;20.17;;
6850;SDS011;3464;42.728;23.296;2022-08-21T00:16:25;35.87;;;19.47;;
6850;SDS011;3464;42.728;23.296;2022-08-21T00:19:14;38.80;;;21.30;;
6850;SDS011;3464;42.728;23.296;2022-08-21T00:22:04;35.33;;;20.20;;
6850;SDS011;3464;42.728;23.296;2022-08-21T00:24:54;41.40;;;19.33;;
6850;SDS011;3464;42.728;23.296;2022-08-21T00:27:44;38.10;;;21.73;;
6850;SDS011;3464;42.728;23.296;2022-08-21T00:30:34;36.77;;;21.73;;
6850;SDS011;3464;42.728;23.296;2022-08-21T00:33:23;35.80;;;21.50;;
6850;SDS011;3464;42.728;23.296;2022-08-21T00:36:13;39.30;;;21.20;;
6850;SDS011;3464;42.728;23.296;2022-08-21T00:39:03;36.27;;;21.50;;
6850;SDS011;3464;42.728;23.296;2022-08-21T00:41:51;37.17;;;20.67;;
6850;SDS011;3464;42.728;23.296;2022-08-21T00:44:42;34.17;;;20.23;;
6850;SDS011;3464;42.728;23.296;2022-08-21T00:47:31;35.10;;;21.63;;
6850;SDS011;3464;42.728;23.296;2022-08-21T00:50:21;39.33;;;21.00;;
6850;SDS011;3464;42.728;23.296;2022-08-21T00:53:11;32.03;;;18.83;;
6850;SDS011;3464;42.728;23.296;2022-08-21T00:56:00;33.13;;;18.70;;
6850;SDS011;3464;42.728;23.296;2022-08-21T00:58:48;31.33;;;17.40;;
6850;SDS011;3464;42.728;23.296;2022-08-21T01:01:37;27.43;;;15.50;;
6850;SDS011;3464;42.728;23.296;2022-08-21T01:04:27;27.03;;;14.40;;
6850;SDS011;3464;42.728;23.296;2022-08-21T01:07:16;25.10;;;14.10;;
6850;SDS011;3464;42.728;23.296;2022-08-21T01:10:06;24.30;;;13.07;;
6850;SDS011;3464;42.728;23.296;2022-08-21T01:12:55;32.63;;;15.90;;
6850;SDS011;3464;42.728;23.296;2022-08-21T01:15:46;24.47;;;14.50;;
6850;SDS011;3464;42.728;23.296;2022-08-21T01:18:34;23.97;;;14.40;;
6850;SDS011;3464;42.728;23.296;2022-08-21T01:21:25;31.40;;;17.10;;
6850;SDS011;3464;42.728;23.296;2022-08-21T01:24:13;30.57;;;17.27;;
6850;SDS011;3464;42.728;23.296;2022-08-21T01:27:03;30.03;;;16.80;;
6850;SDS011;3464;42.728;23.296;2022-08-21T01:29:54;32.80;;;17.97;;
6850;SDS011;3464;42.728;23.296;2022-08-21T01:32:58;25.63;;;15.47;;
6850;SDS011;3464;42.728;23.296;2022-08-21T01:35:47;28.17;;;12.77;;
6850;SDS011;3464;42.728;23.296;2022-08-21T01:38:37;25.30;;;13.30;;
6850;SDS011;3464;42.728;23.296;2022-08-21T01:41:27;22.40;;;12.07;;
6850;SDS011;3464;42.728;23.296;2022-08-21T01:44:19;18.80;;;10.80;;
6850;SDS011;3464;42.728;23.296;2022-08-21T01:47:07;17.90;;;10.00;;
6850;SDS011;3464;42.728;23.296;2022-08-21T01:49:55;19.70;;;9.60;;
6850;SDS011;3464;42.728;23.296;2022-08-21T01:52:45;22.60;;;10.80;;
6850;SDS011;3464;42.728;23.296;2022-08-21T01:55:35;18.50;;;9.50;;
6850;SDS011;3464;42.728;23.296;2022-08-21T01:58:24;18.80;;;9.70;;
6850;SDS011;3464;42.728;23.296;2022-08-21T02:01:14;18.23;;;9.90;;
6850;SDS011;3464;42.728;23.296;2022-08-21T02:04:04;21.83;;;11.00;;
6850;SDS011;3464;42.728;23.296;2022-08-21T02:06:53;25.43;;;11.70;;
6850;SDS011;3464;42.728;23.296;2022-08-21T02:09:43;22.70;;;11.47;;
6850;SDS011;3464;42.728;23.296;2022-08-21T02:12:32;19.93;;;11.57;;
6850;SDS011;3464;42.728;23.296;2022-08-21T02:15:21;26.33;;;12.30;;
6850;SDS011;3464;42.728;23.296;2022-08-21T02:18:11;24.00;;;12.00;;
6850;SDS011;3464;42.728;23.296;2022-08-21T02:21:01;20.93;;;12.30;;
6850;SDS011;3464;42.728;23.296;2022-08-21T02:23:50;21.33;;;12.20;;
6850;SDS011;3464;42.728;23.296;2022-08-21T02:26:39;21.50;;;12.13;;
6850;SDS011;3464;42.728;23.296;2022-08-21T02:29:28;22.80;;;12.20;;
6850;SDS011;3464;42.728;23.296;2022-08-21T02:32:18;24.27;;;13.03;;
6850;SDS011;3464;42.728;23.296;2022-08-21T02:35:09;22.77;;;12.00;;
6850;SDS011;3464;42.728;23.296;2022-08-21T02:38:00;20.70;;;11.83;;
6850;SDS011;3464;42.728;23.296;2022-08-21T02:40:49;22.57;;;13.13;;
6850;SDS011;3464;42.728;23.296;2022-08-21T02:43:38;24.47;;;13.07;;
6850;SDS011;3464;42.728;23.296;2022-08-21T02:46:27;23.47;;;13.20;;
6850;SDS011;3464;42.728;23.296;2022-08-21T02:49:16;22.93;;;12.60;;
6850;SDS011;3464;42.728;23.296;2022-08-21T02:52:06;24.47;;;12.67;;
6850;SDS011;3464;42.728;23.296;2022-08-21T02:54:55;21.33;;;12.30;;
6850;SDS011;3464;42.728;23.296;2022-08-21T02:57:45;26.10;;;12.93;;
6850;SDS011;3464;42.728;23.296;2022-08-21T03:00:35;23.00;;;12.63;;
6850;SDS011;3464;42.728;23.296;2022-08-21T03:03:25;22.73;;;12.50;;
6850;SDS011;3464;42.728;23.296;2022-08-21T03:06:15;22.43;;;11.67;;
6850;SDS011;3464;42.728;23.296;2022-08-21T03:09:04;21.77;;;12.63;;
6850;SDS011;3464;42.728;23.296;2022-08-21T03:11:54;21.90;;;11.73;;
6850;SDS011;3464;42.728;23.296;2022-08-21T03:14:43;22.03;;;12.40;;
6850;SDS011;3464;42.728;23.296;2022-08-21T03:17:33;19.70;;;11.00;;
6850;SDS011;3464;42.728;23.296;2022-08-21T03:20:24;19.00;;;10.50;;
6850;SDS011;3464;42.728;23.296;2022-08-21T03:23:13;23.33;;;11.90;;
6850;SDS011;3464;42.728;23.296;2022-08-21T03:26:02;21.03;;;10.80;;
6850;SDS011;3464;42.728;23.296;2022-08-21T03:28:51;20.40;;;11.83;;
6850;SDS011;3464;42.728;23.296;2022-08-21T03:31:41;26.20;;;12.77;;
6850;SDS011;3464;42.728;23.296;2022-08-21T03:34:30;26.80;;;13.03;;
6850;SDS011;3464;42.728;23.296;2022-08-21T03:37:20;27.03;;;12.80;;
6850;SDS011;3464;42.728;23.296;2022-08-21T03:40:11;26.63;;;13.80;;
6850;SDS011;3464;42.728;23.296;2022-08-21T03:42:59;21.57;;;14.07;;
6850;SDS011;3464;42.728;23.296;2022-08-21T03:45:49;26.97;;;14.83;;
6850;SDS011;3464;42.728;23.296;2022-08-21T03:48:39;29.93;;;16.80;;
6850;SDS011;3464;42.728;23.296;2022-08-21T03:51:28;36.30;;;17.63;;
6850;SDS011;3464;42.728;23.296;2022-08-21T03:54:17;30.30;;;17.80;;
6850;SDS011;3464;42.728;23.296;2022-08-21T03:57:07;25.83;;;16.20;;
6850;SDS011;3464;42.728;23.296;2022-08-21T03:59:57;30.37;;;18.20;;
6850;SDS011;3464;42.728;23.296;2022-08-21T04:02:46;31.23;;;19.17;;
6850;SDS011;3464;42.728;23.296;2022-08-21T04:05:36;32.73;;;18.73;;
6850;SDS011;3464;42.728;23.296;2022-08-21T04:08:26;29.57;;;18.27;;
6850;SDS011;3464;42.728;23.296;2022-08-21T04:11:16;32.07;;;18.60;;
6850;SDS011;3464;42.728;23.296;2022-08-21T04:14:06;30.17;;;19.40;;
6850;SDS011;3464;42.728;23.296;2022-08-21T04:16:54;30.00;;;17.40;;
6850;SDS011;3464;42.728;23.296;2022-08-21T04:19:44;33.17;;;19.90;;
6850;SDS011;3464;42.728;23.296;2022-08-21T04:22:33;31.40;;;18.93;;
6850;SDS011;3464;42.728;23.296;2022-08-21T04:25:23;38.87;;;24.37;;
6850;SDS011;3464;42.728;23.296;2022-08-21T04:28:13;41.43;;;25.77;;
6850;SDS011;3464;42.728;23.296;2022-08-21T04:31:02;42.37;;;24.53;;
6850;SDS011;3464;42.728;23.296;2022-08-21T04:33:51;38.90;;;23.37;;
6850;SDS011;3464;42.728;23.296;2022-08-21T04:36:40;39.80;;;24.50;;
6850;SDS011;3464;42.728;23.296;2022-08-21T04:39:30;39.27;;;23.33;;
6850;SDS011;3464;42.728;23.296;2022-08-21T04:42:19;29.43;;;19.40;;
6850;SDS011;3464;42.728;23.296;2022-08-21T04:45:08;36.87;;;19.47;;
6850;SDS011;3464;42.728;23.296;2022-08-21T04:47:58;29.80;;;18.47;;
6850;SDS011;3464;42.728;23.296;2022-08-21T04:50:50;29.90;;;17.73;;
6850;SDS011;3464;42.728;23.296;2022-08-21T04:53:41;28.10;;;16.70;;
6850;SDS011;3464;42.728;23.296;2022-08-21T04:56:33;28.50;;;16.70;;
6850;SDS011;3464;42.728;23.296;2022-08-21T04:59:23;31.93;;;17.63;;
6850;SDS011;3464;42.728;23.296;2022-08-21T05:02:11;31.30;;;18.13;;
6850;SDS011;3464;42.728;23.296;2022-08-21T05:05:01;26.60;;;16.23;;
6850;SDS011;3464;42.728;23.296;2022-08-21T05:07:51;26.50;;;16.00;;
6850;SDS011;3464;42.728;23.296;2022-08-21T05:10:40;28.07;;;16.70;;
6850;SDS011;3464;42.728;23.296;2022-08-21T05:13:30;27.30;;;14.40;;
6850;SDS011;3464;42.728;23.296;2022-08-21T05:16:19;28.47;;;15.60;;
6850;SDS011;3464;42.728;23.296;2022-08-21T05:19:08;26.37;;;14.10;;
6850;SDS011;3464;42.728;23.296;2022-08-21T05:21:58;24.33;;;13.80;;
6850;SDS011;3464;42.728;23.296;2022-08-21T05:24:48;28.00;;;14.40;;
6850;SDS011;3464;42.728;23.296;2022-08-21T05:27:38;32.90;;;14.90;;
6850;SDS011;3464;42.728;23.296;2022-08-21T05:30:28;27.43;;;13.93;;
6850;SDS011;3464;42.728;23.296;2022-08-21T05:33:17;36.53;;;15.40;;
6850;SDS011;3464;42.728;23.296;2022-08-21T05:36:06;26.50;;;15.73;;
6850;SDS011;3464;42.728;23.296;2022-08-21T05:38:54;25.33;;;14.57;;
6850;SDS011;3464;42.728;23.296;2022-08-21T05:41:44;23.03;;;13.57;;
6850;SDS011;3464;42.728;23.296;2022-08-21T05:44:34;25.33;;;14.27;;
6850;SDS011;3464;42.728;23.296;2022-08-21T05:47:23;25.37;;;13.73;;
6850;SDS011;3464;42.728;23.296;2022-08-21T05:50:13;25.87;;;15.83;;
6850;SDS011;3464;42.728;23.296;2022-08-21T05:53:03;29.50;;;16.13;;
6850;SDS011;3464;42.728;23.296;2022-08-21T05:55:52;26.03;;;16.57;;
6850;SDS011;3464;42.728;23.296;2022-08-21T05:58:43;30.73;;;18.17;;
6850;SDS011;3464;42.728;23.296;2022-08-21T06:01:32;27.87;;;18.57;;
6850;SDS011;3464;42.728;23.296;2022-08-21T06:04:22;30.03;;;19.97;;
6850;SDS011;3464;42.728;23.296;2022-08-21T06:07:11;33.33;;;20.90;;
6850;SDS011;3464;42.728;23.296;2022-08-21T06:10:01;31.90;;;21.27;;
6850;SDS011;3464;42.728;23.296;2022-08-21T06:12:52;30.23;;;20.00;;
6850;SDS011;3464;42.728;23.296;2022-08-21T06:15:42;33.43;;;21.40;;
6850;SDS011;3464;42.728;23.296;2022-08-21T06:18:31;39.03;;;23.80;;
6850;SDS011;3464;42.728;23.296;2022-08-21T06:21:21;43.40;;;25.13;;
6850;SDS011;3464;42.728;23.296;2022-08-21T06:24:10;39.47;;;26.80;;
6850;SDS011;3464;42.728;23.296;2022-08-21T06:27:04;39.33;;;23.83;;
6850;SDS011;3464;42.728;23.296;2022-08-21T06:29:52;35.03;;;23.60;;
6850;SDS011;3464;42.728;23.296;2022-08-21T06:32:42;32.33;;;20.93;;
6850;SDS011;3464;42.728;23.296;2022-08-21T06:35:32;32.43;;;19.20;;
6850;SDS011;3464;42.728;23.296;2022-08-21T06:38:21;30.07;;;20.57;;
6850;SDS011;3464;42.728;23.296;2022-08-21T06:41:10;27.73;;;17.30;;
6850;SDS011;3464;42.728;23.296;2022-08-21T06:44:00;28.13;;;18.07;;
6850;SDS011;3464;42.728;23.296;2022-08-21T06:46:49;28.13;;;17.47;;
6850;SDS011;3464;42.728;23.296;2022-08-21T06:49:38;24.77;;;17.53;;
6850;SDS011;3464;42.728;23.296;2022-08-21T06:52:27;26.07;;;16.37;;
6850;SDS011;3464;42.728;23.296;2022-08-21T06:55:17;23.90;;;15.13;;
6850;SDS011;3464;42.728;23.296;2022-08-21T06:58:06;22.73;;;14.50;;
6850;SDS011;3464;42.728;23.296;2022-08-21T07:00:55;23.90;;;14.50;;
6850;SDS011;3464;42.728;23.296;2022-08-21T07:03:44;23.83;;;15.50;;
6850;SDS011;3464;42.728;23.296;2022-08-21T07:06:35;27.57;;;13.30;;
6850;SDS011;3464;42.728;23.296;2022-08-21T07:09:24;25.43;;;15.17;;
6850;SDS011;3464;42.728;23.296;2022-08-21T07:12:13;23.63;;;13.23;;
6850;SDS011;3464;42.728;23.296;2022-08-21T07:15:03;21.00;;;12.30;;
6850;SDS011;3464;42.728;23.296;2022-08-21T07:17:51;24.10;;;12.40;;
6850;SDS011;3464;42.728;23.296;2022-08-21T07:20:41;29.97;;;14.57;;
6850;SDS011;3464;42.728;23.296;2022-08-21T07:23:31;24.00;;;12.73;;
6850;SDS011;3464;42.728;23.296;2022-08-21T07:26:20;26.23;;;13.33;;
6850;SDS011;3464;42.728;23.296;2022-08-21T07:29:09;20.80;;;12.27;;
6850;SDS011;3464;42.728;23.296;2022-08-21T07:31:58;21.03;;;11.20;;
6850;SDS011;3464;42.728;23.296;2022-08-21T07:34:47;21.17;;;10.73;;
6850;SDS011;3464;42.728;23.296;2022-08-21T07:37:36;26.87;;;10.97;;
6850;SDS011;3464;42.728;23.296;2022-08-21T07:40:25;18.00;;;10.10;;
6850;SDS011;3464;42.728;23.296;2022-08-21T07:43:15;19.40;;;10.10;;
6850;SDS011;3464;42.728;23.296;2022-08-21T07:46:04;19.53;;;10.00;;
6850;SDS011;3464;42.728;23.296;2022-08-21T07:48:52;22.03;;;11.93;;
6850;SDS011;3464;42.728;23.296;2022-08-21T07:51:42;23.53;;;11.60;;
6850;SDS011;3464;42.728;23.296;2022-08-21T07:54:31;23.33;;;10.73;;
6850;SDS011;3464;42.728;23.296;2022-08-21T07:57:21;21.13;;;10.97;;
6850;SDS011;3464;42.728;23.296;2022-08-21T08:00:11;20.30;;;10.00;;
6850;SDS011;3464;42.728;23.296;2022-08-21T08:02:59;20.87;;;10.90;;
6850;SDS011;3464;42.728;23.296;2022-08-21T08:05:48;20.83;;;9.70;;
6850;SDS011;3464;42.728;23.296;2022-08-21T08:08:36;30.57;;;11.60;;
6850;SDS011;3464;42.728;23.296;2022-08-21T08:11:26;20.70;;;10.93;;
6850;SDS011;3464;42.728;23.296;2022-08-21T08:14:16;20.50;;;10.60;;
6850;SDS011;3464;42.728;23.296;2022-08-21T08:17:05;23.33;;;10.50;;
6850;SDS011;3464;42.728;23.296;2022-08-21T08:19:55;19.90;;;11.70;;
6850;SDS011;3464;42.728;23.296;2022-08-21T08:22:43;25.53;;;11.03;;
6850;SDS011;3464;42.728;23.296;2022-08-21T08:25:33;21.00;;;10.50;;
6850;SDS011;3464;42.728;23.296;2022-08-21T08:28:23;27.30;;;10.77;;
6850;SDS011;3464;42.728;23.296;2022-08-21T08:31:12;19.83;;;10.07;;
6850;SDS011;3464;42.728;23.296;2022-08-21T08:34:01;22.43;;;10.87;;
6850;SDS011;3464;42.728;23.296;2022-08-21T08:36:49;24.33;;;10.60;;
6850;SDS011;3464;42.728;23.296;2022-08-21T08:39:39;18.97;;;10.27;;
6850;SDS011;3464;42.728;23.296;2022-08-21T08:42:31;26.20;;;11.17;;
6850;SDS011;3464;42.728;23.296;2022-08-21T08:45:20;19.30;;;9.97;;
6850;SDS011;3464;42.728;23.296;2022-08-21T08:48:08;20.90;;;10.00;;
6850;SDS011;3464;42.728;23.296;2022-08-21T08:50:56;20.70;;;10.03;;
6850;SDS011;3464;42.728;23.296;2022-08-21T08:53:49;19.13;;;10.93;;
6850;SDS011;3464;42.728;23.296;2022-08-21T08:56:37;20.50;;;9.20;;
6850;SDS011;3464;42.728;23.296;2022-08-21T08:59:27;16.67;;;9.27;;
6850;SDS011;3464;42.728;23.296;2022-08-21T09:02:21;21.73;;;8.43;;
6850;SDS011;3464;42.728;23.296;2022-08-21T09:05:27;18.07;;;9.00;;
6850;SDS011;3464;42.728;23.296;2022-08-21T09:11:26;19.37;;;8.57;;
6850;SDS011;3464;42.728;23.296;2022-08-21T09:14:16;22.10;;;8.90;;
6850;SDS011;3464;42.728;23.296;2022-08-21T09:17:31;19.63;;;9.40;;
6850;SDS011;3464;42.728;23.296;2022-08-21T09:20:23;16.83;;;7.23;;
6850;SDS011;3464;42.728;23.296;2022-08-21T09:23:33;18.60;;;7.67;;
6850;SDS011;3464;42.728;23.296;2022-08-21T09:26:26;16.23;;;7.10;;
6850;SDS011;3464;42.728;23.296;2022-08-21T09:29:19;15.10;;;7.10;;
6850;SDS011;3464;42.728;23.296;2022-08-21T09:32:12;16.47;;;6.77;;
6850;SDS011;3464;42.728;23.296;2022-08-21T09:35:00;19.50;;;7.63;;
6850;SDS011;3464;42.728;23.296;2022-08-21T09:37:50;16.57;;;7.13;;
6850;SDS011;3464;42.728;23.296;2022-08-21T09:40:42;18.77;;;8.20;;
6850;SDS011;3464;42.728;23.296;2022-08-21T09:43:31;20.53;;;7.17;;
6850;SDS011;3464;42.728;23.296;2022-08-21T09:46:21;15.10;;;6.30;;
6850;SDS011;3464;42.728;23.296;2022-08-21T09:49:09;24.23;;;7.03;;
6850;SDS011;3464;42.728;23.296;2022-08-21T09:51:58;20.63;;;6.57;;
6850;SDS011;3464;42.728;23.296;2022-08-21T09:54:50;16.70;;;7.10;;
6850;SDS011;3464;42.728;23.296;2022-08-21T09:57:37;21.57;;;7.40;;
6850;SDS011;3464;42.728;23.296;2022-08-21T10:00:29;17.93;;;6.90;;
6850;SDS011;3464;42.728;23.296;2022-08-21T10:03:18;15.23;;;6.60;;
6850;SDS011;3464;42.728;23.296;2022-08-21T10:06:07;16.70;;;6.60;;
6850;SDS011;3464;42.728;23.296;2022-08-21T10:09:04;17.53;;;6.87;;
6850;SDS011;3464;42.728;23.296;2022-08-21T10:15:16;17.37;;;6.27;;
6850;SDS011;3464;42.728;23.296;2022-08-21T10:18:15;18.23;;;6.90;;
6850;SDS011;3464;42.728;23.296;2022-08-21T10:24:16;15.07;;;6.80;;
6850;SDS011;3464;42.728;23.296;2022-08-21T10:27:39;15.97;;;6.30;;
6850;SDS011;3464;42.728;23.296;2022-08-21T10:30:19;15.53;;;6.70;;
6850;SDS011;3464;42.728;23.296;2022-08-21T10:33:12;16.20;;;6.63;;
6850;SDS011;3464;42.728;23.296;2022-08-21T10:36:13;16.23;;;6.80;;
6850;SDS011;3464;42.728;23.296;2022-08-21T10:39:03;18.53;;;6.77;;
6850;SDS011;3464;42.728;23.296;2022-08-21T10:42:02;16.03;;;6.37;;
6850;SDS011;3464;42.728;23.296;2022-08-21T10:45:04;18.47;;;6.40;;
6850;SDS011;3464;42.728;23.296;2022-08-21T10:47:53;16.20;;;6.17;;
6850;SDS011;3464;42.728;23.296;2022-08-21T10:50:42;17.70;;;6.80;;
6850;SDS011;3464;42.728;23.296;2022-08-21T10:53:34;19.07;;;7.07;;
6850;SDS011;3464;42.728;23.296;2022-08-21T10:56:29;18.17;;;6.30;;
6850;SDS011;3464;42.728;23.296;2022-08-21T10:59:26;17.40;;;6.63;;
6850;SDS011;3464;42.728;23.296;2022-08-21T11:02:21;16.57;;;6.53;;
6850;SDS011;3464;42.728;23.296;2022-08-21T11:05:14;18.00;;;6.07;;
6850;SDS011;3464;42.728;23.296;2022-08-21T11:08:11;15.40;;;6.00;;
6850;SDS011;3464;42.728;23.296;2022-08-21T11:11:36;14.83;;;6.60;;
6850;SDS011;3464;42.728;23.296;2022-08-21T11:14:31;21.30;;;6.60;;
6850;SDS011;3464;42.728;23.296;2022-08-21T11:17:21;16.93;;;6.67;;
6850;SDS011;3464;42.728;23.296;2022-08-21T11:20:13;16.30;;;7.13;;
6850;SDS011;3464;42.728;23.296;2022-08-21T11:23:04;15.97;;;6.60;;
6850;SDS011;3464;42.728;23.296;2022-08-21T11:25:58;19.63;;;7.20;;
6850;SDS011;3464;42.728;23.296;2022-08-21T11:28:47;18.10;;;7.30;;
6850;SDS011;3464;42.728;23.296;2022-08-21T11:31:41;16.90;;;6.93;;
6850;SDS011;3464;42.728;23.296;2022-08-21T11:34:47;15.47;;;6.83;;
6850;SDS011;3464;42.728;23.296;2022-08-21T11:38:01;18.73;;;6.87;;
6850;SDS011;3464;42.728;23.296;2022-08-21T11:40:54;17.17;;;6.87;;
6850;SDS011;3464;42.728;23.296;2022-08-21T11:43:45;17.83;;;7.60;;
6850;SDS011;3464;42.728;23.296;2022-08-21T11:46:42;14.33;;;5.83;;
6850;SDS011;3464;42.728;23.296;2022-08-21T11:49:46;15.90;;;6.13;;
6850;SDS011;3464;42.728;23.296;2022-08-21T11:52:44;19.00;;;6.07;;
6850;SDS011;3464;42.728;23.296;2022-08-21T11:55:36;16.27;;;6.50;;
6850;SDS011;3464;42.728;23.296;2022-08-21T11:58:27;16.63;;;5.43;;
6850;SDS011;3464;42.728;23.296;2022-08-21T12:01:19;18.23;;;6.07;;
6850;SDS011;3464;42.728;23.296;2022-08-21T12:04:08;16.00;;;5.50;;
6850;SDS011;3464;42.728;23.296;2022-08-21T12:09:55;16.80;;;6.03;;
6850;SDS011;3464;42.728;23.296;2022-08-21T12:12:44;14.60;;;5.80;;
6850;SDS011;3464;42.728;23.296;2022-08-21T12:15:34;18.47;;;5.73;;
6850;SDS011;3464;42.728;23.296;2022-08-21T12:18:27;14.10;;;5.70;;
6850;SDS011;3464;42.728;23.296;2022-08-21T12:21:19;14.23;;;5.90;;
6850;SDS011;3464;42.728;23.296;2022-08-21T12:24:18;14.93;;;5.50;;
6850;SDS011;3464;42.728;23.296;2022-08-21T12:27:26;13.20;;;6.50;;
6850;SDS011;3464;42.728;23.296;2022-08-21T12:30:32;17.73;;;6.30;;
6850;SDS011;3464;42.728;23.296;2022-08-21T12:33:20;15.60;;;6.00;;
6850;SDS011;3464;42.728;23.296;2022-08-21T12:36:11;17.80;;;6.30;;
6850;SDS011;3464;42.728;23.296;2022-08-21T12:39:03;17.40;;;6.10;;
6850;SDS011;3464;42.728;23.296;2022-08-21T12:41:57;17.73;;;7.17;;
6850;SDS011;3464;42.728;23.296;2022-08-21T12:44:48;14.57;;;6.67;;
6850;SDS011;3464;42.728;23.296;2022-08-21T12:47:45;17.67;;;7.53;;
6850;SDS011;3464;42.728;23.296;2022-08-21T12:50:36;17.37;;;6.77;;
6850;SDS011;3464;42.728;23.296;2022-08-21T12:53:47;15.33;;;5.93;;
6850;SDS011;3464;42.728;23.296;2022-08-21T12:56:34;17.40;;;7.30;;
6850;SDS011;3464;42.728;23.296;2022-08-21T12:59:23;15.90;;;7.20;;
6850;SDS011;3464;42.728;23.296;2022-08-21T13:02:15;15.73;;;7.20;;
6850;SDS011;3464;42.728;23.296;2022-08-21T13:05:03;19.10;;;6.33;;
6850;SDS011;3464;42.728;23.296;2022-08-21T13:07:51;17.23;;;7.53;;
6850;SDS011;3464;42.728;23.296;2022-08-21T13:10:41;15.60;;;6.40;;
6850;SDS011;3464;42.728;23.296;2022-08-21T13:13:30;15.10;;;6.27;;
6850;SDS011;3464;42.728;23.296;2022-08-21T13:16:20;14.50;;;6.60;;
6850;SDS011;3464;42.728;23.296;2022-08-21T13:19:11;15.63;;;6.57;;
6850;SDS011;3464;42.728;23.296;2022-08-21T13:21:58;15.67;;;6.10;;
6850;SDS011;3464;42.728;23.296;2022-08-21T13:24:48;16.60;;;6.60;;
6850;SDS011;3464;42.728;23.296;2022-08-21T13:27:37;13.97;;;5.83;;
6850;SDS011;3464;42.728;23.296;2022-08-21T13:30:26;15.50;;;6.27;;
6850;SDS011;3464;42.728;23.296;2022-08-21T13:33:16;14.60;;;6.00;;
6850;SDS011;3464;42.728;23.296;2022-08-21T13:36:08;15.60;;;5.63;;
6850;SDS011;3464;42.728;23.296;2022-08-21T13:38:55;19.37;;;6.93;;
6850;SDS011;3464;42.728;23.296;2022-08-21T13:41:46;18.30;;;6.60;;
6850;SDS011;3464;42.728;23.296;2022-08-21T13:44:39;16.20;;;6.23;;
6850;SDS011;3464;42.728;23.296;2022-08-21T13:47:25;14.93;;;5.53;;
6850;SDS011;3464;42.728;23.296;2022-08-21T13:50:15;15.30;;;5.97;;
6850;SDS011;3464;42.728;23.296;2022-08-21T13:53:05;18.03;;;5.67;;
6850;SDS011;3464;42.728;23.296;2022-08-21T13:56:00;13.90;;;5.70;;
6850;SDS011;3464;42.728;23.296;2022-08-21T13:58:48;16.57;;;5.90;;
6850;SDS011;3464;42.728;23.296;2022-08-21T14:01:39;17.60;;;6.47;;
6850;SDS011;3464;42.728;23.296;2022-08-21T14:04:33;13.13;;;5.60;;
6850;SDS011;3464;42.728;23.296;2022-08-21T14:07:29;13.63;;;5.63;;
6850;SDS011;3464;42.728;23.296;2022-08-21T14:10:20;14.77;;;5.90;;
6850;SDS011;3464;42.728;23.296;2022-08-21T14:13:15;13.70;;;5.43;;
6850;SDS011;3464;42.728;23.296;2022-08-21T14:16:16;16.07;;;5.70;;
6850;SDS011;3464;42.728;23.296;2022-08-21T14:19:17;14.53;;;6.20;;
6850;SDS011;3464;42.728;23.296;2022-08-21T14:25:12;14.53;;;5.77;;
6850;SDS011;3464;42.728;23.296;2022-08-21T14:28:13;14.03;;;5.30;;
6850;SDS011;3464;42.728;23.296;2022-08-21T14:31:12;17.17;;;6.30;;
6850;SDS011;3464;42.728;23.296;2022-08-21T14:33:59;16.03;;;6.13;;
6850;SDS011;3464;42.728;23.296;2022-08-21T14:36:49;17.03;;;5.80;;
6850;SDS011;3464;42.728;23.296;2022-08-21T14:39:38;15.67;;;5.73;;
6850;SDS011;3464;42.728;23.296;2022-08-21T14:42:27;14.67;;;5.30;;
6850;SDS011;3464;42.728;23.296;2022-08-21T14:45:18;14.73;;;6.17;;
6850;SDS011;3464;42.728;23.296;2022-08-21T14:48:06;16.30;;;6.87;;
6850;SDS011;3464;42.728;23.296;2022-08-21T14:50:55;13.70;;;6.30;;
6850;SDS011;3464;42.728;23.296;2022-08-21T14:53:45;17.47;;;7.03;;
6850;SDS011;3464;42.728;23.296;2022-08-21T14:56:34;14.00;;;6.53;;
6850;SDS011;3464;42.728;23.296;2022-08-21T14:59:23;16.63;;;6.90;;
6850;SDS011;3464;42.728;23.296;2022-08-21T15:02:13;17.03;;;6.70;;
6850;SDS011;3464;42.728;23.296;2022-08-21T15:05:03;14.50;;;6.03;;
6850;SDS011;3464;42.728;23.296;2022-08-21T15:07:52;15.30;;;6.40;;
6850;SDS011;3464;42.728;23.296;2022-08-21T15:10:42;14.97;;;6.23;;
6850;SDS011;3464;42.728;23.296;2022-08-21T15:13:32;16.50;;;6.40;;
6850;SDS011;3464;42.728;23.296;2022-08-21T15:16:22;16.10;;;6.10;;
6850;SDS011;3464;42.728;23.296;2022-08-21T15:19:11;14.43;;;6.03;;
6850;SDS011;3464;42.728;23.296;2022-08-21T15:22:01;24.73;;;6.60;;
6850;SDS011;3464;42.728;23.296;2022-08-21T15:24:51;18.07;;;6.87;;
6850;SDS011;3464;42.728;23.296;2022-08-21T15:27:40;19.77;;;6.67;;
6850;SDS011;3464;42.728;23.296;2022-08-21T15:30:31;18.30;;;7.17;;
6850;SDS011;3464;42.728;23.296;2022-08-21T15:33:20;15.67;;;6.80;;
6850;SDS011;3464;42.728;23.296;2022-08-21T15:36:09;15.57;;;6.63;;
6850;SDS011;3464;42.728;23.296;2022-08-21T15:38:58;17.43;;;6.77;;
6850;SDS011;3464;42.728;23.296;2022-08-21T15:41:47;22.40;;;7.37;;
6850;SDS011;3464;42.728;23.296;2022-08-21T15:44:37;18.10;;;7.47;;
6850;SDS011;3464;42.728;23.296;2022-08-21T15:47:28;20.27;;;7.67;;
6850;SDS011;3464;42.728;23.296;2022-08-21T15:50:16;17.17;;;7.40;;
6850;SDS011;3464;42.728;23.296;2022-08-21T15:53:04;14.30;;;6.73;;
6850;SDS011;3464;42.728;23.296;2022-08-21T15:55:54;16.00;;;7.37;;
6850;SDS011;3464;42.728;23.296;2022-08-21T15:58:44;16.13;;;7.33;;
6850;SDS011;3464;42.728;23.296;2022-08-21T16:01:34;15.93;;;7.70;;
6850;SDS011;3464;42.728;23.296;2022-08-21T16:04:24;16.07;;;7.20;;
6850;SDS011;3464;42.728;23.296;2022-08-21T16:07:12;18.17;;;7.20;;
6850;SDS011;3464;42.728;23.296;2022-08-21T16:10:03;16.07;;;7.33;;
6850;SDS011;3464;42.728;23.296;2022-08-21T16:13:00;17.73;;;7.20;;
6850;SDS011;3464;42.728;23.296;2022-08-21T16:16:03;17.10;;;7.90;;
6850;SDS011;3464;42.728;23.296;2022-08-21T16:18:52;19.83;;;7.77;;
6850;SDS011;3464;42.728;23.296;2022-08-21T16:21:41;17.97;;;8.20;;
6850;SDS011;3464;42.728;23.296;2022-08-21T16:24:30;16.77;;;7.10;;
6850;SDS011;3464;42.728;23.296;2022-08-21T16:27:20;20.70;;;8.10;;
6850;SDS011;3464;42.728;23.296;2022-08-21T16:30:09;16.73;;;7.93;;
6850;SDS011;3464;42.728;23.296;2022-08-21T16:32:59;17.97;;;8.27;;
6850;SDS011;3464;42.728;23.296;2022-08-21T16:35:49;16.20;;;8.03;;
6850;SDS011;3464;42.728;23.296;2022-08-21T16:38:39;20.67;;;7.70;;
6850;SDS011;3464;42.728;23.296;2022-08-21T16:41:30;20.67;;;8.13;;
6850;SDS011;3464;42.728;23.296;2022-08-21T16:44:18;22.47;;;8.00;;
6850;SDS011;3464;42.728;23.296;2022-08-21T16:47:07;20.23;;;7.70;;
6850;SDS011;3464;42.728;23.296;2022-08-21T16:49:56;21.47;;;8.40;;
6850;SDS011;3464;42.728;23.296;2022-08-21T16:52:46;18.67;;;7.87;;
6850;SDS011;3464;42.728;23.296;2022-08-21T16:55:35;18.10;;;7.90;;
6850;SDS011;3464;42.728;23.296;2022-08-21T16:58:29;16.73;;;8.07;;
6850;SDS011;3464;42.728;23.296;2022-08-21T17:01:19;21.57;;;8.90;;
6850;SDS011;3464;42.728;23.296;2022-08-21T17:04:08;17.10;;;7.97;;
6850;SDS011;3464;42.728;23.296;2022-08-21T17:06:57;18.50;;;7.80;;
6850;SDS011;3464;42.728;23.296;2022-08-21T17:09:47;18.43;;;8.80;;
6850;SDS011;3464;42.728;23.296;2022-08-21T17:12:37;17.77;;;8.67;;
6850;SDS011;3464;42.728;23.296;2022-08-21T17:15:27;18.33;;;8.37;;
6850;SDS011;3464;42.728;23.296;2022-08-21T17:18:17;28.43;;;10.00;;